sensor_id;sensor_type;location;lat;lon;timestamp;temperature;humidity
34644;DHT22;26931;43.498;-1.506;2022-12-18T00:02:14;11.80;96.30
34644;DHT22;26931;43.498;-1.506;2022-12-18T00:04:40;11.90;96.30
34644;DHT22;26931;43.498;-1.506;2022-12-18T00:07:05;11.80;96.20
34644;DHT22;26931;43.498;-1.506;2022-12-18T00:09:31;11.80;96.10
34644;DHT22;26931;43.498;-1.506;2022-12-18T00:11:56;11.90;96.10
34644;DHT22;26931;43.498;-1.506;2022-12-18T00:14:22;12.00;96.10
34644;DHT22;26931;43.498;-1.506;2022-12-18T00:16:48;12.20;96.10
34644;DHT22;26931;43.498;-1.506;2022-12-18T00:19:14;12.00;96.00
34644;DHT22;26931;43.498;-1.506;2022-12-18T00:21:40;11.90;95.90
34644;DHT22;26931;43.498;-1.506;2022-12-18T00:24:06;12.00;95.90
34644;DHT22;26931;43.498;-1.506;2022-12-18T00:26:34;12.00;95.90
34644;DHT22;26931;43.498;-1.506;2022-12-18T00:29:00;11.90;95.80
34644;DHT22;26931;43.498;-1.506;2022-12-18T00:31:26;12.10;95.80
34644;DHT22;26931;43.498;-1.506;2022-12-18T00:33:53;12.00;95.70
34644;DHT22;26931;43.498;-1.506;2022-12-18T00:36:20;12.10;95.80
34644;DHT22;26931;43.498;-1.506;2022-12-18T00:38:47;12.20;95.70
34644;DHT22;26931;43.498;-1.506;2022-12-18T00:41:13;12.10;95.60
34644;DHT22;26931;43.498;-1.506;2022-12-18T00:43:59;12.30;95.60
34644;DHT22;26931;43.498;-1.506;2022-12-18T00:46:25;12.10;95.50
34644;DHT22;26931;43.498;-1.506;2022-12-18T00:48:51;12.10;95.70
34644;DHT22;26931;43.498;-1.506;2022-12-18T00:51:16;12.20;95.40
34644;DHT22;26931;43.498;-1.506;2022-12-18T00:53:42;12.10;95.30
34644;DHT22;26931;43.498;-1.506;2022-12-18T00:56:07;12.20;95.20
34644;DHT22;26931;43.498;-1.506;2022-12-18T00:58:33;12.20;95.20
34644;DHT22;26931;43.498;-1.506;2022-12-18T01:00:59;12.20;95.10
34644;DHT22;26931;43.498;-1.506;2022-12-18T01:03:24;12.30;95.40
34644;DHT22;26931;43.498;-1.506;2022-12-18T01:05:50;12.30;95.00
34644;DHT22;26931;43.498;-1.506;2022-12-18T01:08:16;12.10;94.90
34644;DHT22;26931;43.498;-1.506;2022-12-18T01:10:41;12.30;94.90
34644;DHT22;26931;43.498;-1.506;2022-12-18T01:13:07;12.30;94.80
34644;DHT22;26931;43.498;-1.506;2022-12-18T01:15:33;12.30;94.80
34644;DHT22;26931;43.498;-1.506;2022-12-18T01:17:59;12.40;94.70
34644;DHT22;26931;43.498;-1.506;2022-12-18T01:20:25;12.40;94.60
34644;DHT22;26931;43.498;-1.506;2022-12-18T01:22:51;12.40;94.60
34644;DHT22;26931;43.498;-1.506;2022-12-18T01:25:17;12.40;94.60
34644;DHT22;26931;43.498;-1.506;2022-12-18T01:27:43;12.40;94.50
34644;DHT22;26931;43.498;-1.506;2022-12-18T01:30:08;12.40;94.40
34644;DHT22;26931;43.498;-1.506;2022-12-18T01:32:34;12.50;94.40
34644;DHT22;26931;43.498;-1.506;2022-12-18T01:35:00;12.40;94.30
34644;DHT22;26931;43.498;-1.506;2022-12-18T01:37:25;12.40;94.30
34644;DHT22;26931;43.498;-1.506;2022-12-18T01:39:52;12.30;94.20
34644;DHT22;26931;43.498;-1.506;2022-12-18T01:42:19;12.50;94.20
34644;DHT22;26931;43.498;-1.506;2022-12-18T01:47:32;12.50;94.20
34644;DHT22;26931;43.498;-1.506;2022-12-18T01:49:59;12.50;94.10
34644;DHT22;26931;43.498;-1.506;2022-12-18T01:52:27;12.50;94.00
34644;DHT22;26931;43.498;-1.506;2022-12-18T01:54:53;12.50;94.00
34644;DHT22;26931;43.498;-1.506;2022-12-18T01:57:19;12.50;94.00
34644;DHT22;26931;43.498;-1.506;2022-12-18T01:59:46;12.60;93.90
34644;DHT22;26931;43.498;-1.506;2022-12-18T02:02:14;12.50;93.90
34644;DHT22;26931;43.498;-1.506;2022-12-18T02:04:39;12.50;93.90
34644;DHT22;26931;43.498;-1.506;2022-12-18T02:07:17;12.50;93.80
34644;DHT22;26931;43.498;-1.506;2022-12-18T02:12:23;12.50;93.90
34644;DHT22;26931;43.498;-1.506;2022-12-18T02:17:19;12.50;93.80
34644;DHT22;26931;43.498;-1.506;2022-12-18T02:20:05;12.50;93.80
34644;DHT22;26931;43.498;-1.506;2022-12-18T02:22:49;12.50;93.80
34644;DHT22;26931;43.498;-1.506;2022-12-18T02:27:55;12.30;93.80
34644;DHT22;26931;43.498;-1.506;2022-12-18T02:30:24;12.40;93.80
34644;DHT22;26931;43.498;-1.506;2022-12-18T02:32:50;12.40;93.80
34644;DHT22;26931;43.498;-1.506;2022-12-18T02:35:22;12.40;93.80
34644;DHT22;26931;43.498;-1.506;2022-12-18T02:37:49;12.40;93.80
34644;DHT22;26931;43.498;-1.506;2022-12-18T02:40:15;12.40;93.80
34644;DHT22;26931;43.498;-1.506;2022-12-18T02:42:42;12.30;93.80
34644;DHT22;26931;43.498;-1.506;2022-12-18T02:45:08;12.40;93.80
34644;DHT22;26931;43.498;-1.506;2022-12-18T02:47:36;12.30;93.90
34644;DHT22;26931;43.498;-1.506;2022-12-18T02:50:16;12.30;93.90
34644;DHT22;26931;43.498;-1.506;2022-12-18T02:53:06;12.30;94.00
34644;DHT22;26931;43.498;-1.506;2022-12-18T02:58:26;12.10;94.00
34644;DHT22;26931;43.498;-1.506;2022-12-18T03:00:58;12.20;94.10
34644;DHT22;26931;43.498;-1.506;2022-12-18T03:06:13;12.10;94.10
34644;DHT22;26931;43.498;-1.506;2022-12-18T03:08:46;12.00;94.10
34644;DHT22;26931;43.498;-1.506;2022-12-18T03:11:13;12.10;94.20
34644;DHT22;26931;43.498;-1.506;2022-12-18T03:13:41;12.10;94.20
34644;DHT22;26931;43.498;-1.506;2022-12-18T03:16:09;12.10;94.30
34644;DHT22;26931;43.498;-1.506;2022-12-18T03:18:37;12.00;94.30
34644;DHT22;26931;43.498;-1.506;2022-12-18T03:21:05;11.90;94.30
34644;DHT22;26931;43.498;-1.506;2022-12-18T03:23:36;12.00;94.40
34644;DHT22;26931;43.498;-1.506;2022-12-18T03:26:05;11.90;94.40
34644;DHT22;26931;43.498;-1.506;2022-12-18T03:28:33;11.90;94.40
34644;DHT22;26931;43.498;-1.506;2022-12-18T03:31:00;11.90;94.50
34644;DHT22;26931;43.498;-1.506;2022-12-18T03:33:29;11.90;94.50
34644;DHT22;26931;43.498;-1.506;2022-12-18T03:35:57;11.90;94.60
34644;DHT22;26931;43.498;-1.506;2022-12-18T03:38:22;11.90;94.50
34644;DHT22;26931;43.498;-1.506;2022-12-18T03:43:26;11.80;94.50
34644;DHT22;26931;43.498;-1.506;2022-12-18T03:45:55;11.90;94.50
34644;DHT22;26931;43.498;-1.506;2022-12-18T03:48:28;12.00;94.50
34644;DHT22;26931;43.498;-1.506;2022-12-18T03:51:05;11.90;94.50
34644;DHT22;26931;43.498;-1.506;2022-12-18T03:56:00;11.90;94.50
34644;DHT22;26931;43.498;-1.506;2022-12-18T03:58:27;11.90;94.50
34644;DHT22;26931;43.498;-1.506;2022-12-18T04:00:55;11.90;94.50
34644;DHT22;26931;43.498;-1.506;2022-12-18T04:03:21;11.90;94.60
34644;DHT22;26931;43.498;-1.506;2022-12-18T04:05:48;11.90;94.60
34644;DHT22;26931;43.498;-1.506;2022-12-18T04:08:15;11.90;94.50
34644;DHT22;26931;43.498;-1.506;2022-12-18T04:10:41;11.90;94.50
34644;DHT22;26931;43.498;-1.506;2022-12-18T04:13:08;12.00;94.50
34644;DHT22;26931;43.498;-1.506;2022-12-18T04:15:34;11.90;94.50
34644;DHT22;26931;43.498;-1.506;2022-12-18T04:18:01;12.20;94.50
34644;DHT22;26931;43.498;-1.506;2022-12-18T04:20:27;12.00;94.40
34644;DHT22;26931;43.498;-1.506;2022-12-18T04:22:53;12.00;94.40
34644;DHT22;26931;43.498;-1.506;2022-12-18T04:25:18;12.00;94.40
34644;DHT22;26931;43.498;-1.506;2022-12-18T04:27:44;12.00;94.40
34644;DHT22;26931;43.498;-1.506;2022-12-18T04:30:10;12.00;94.40
34644;DHT22;26931;43.498;-1.506;2022-12-18T04:32:36;12.00;94.40
34644;DHT22;26931;43.498;-1.506;2022-12-18T04:35:02;12.10;94.40
34644;DHT22;26931;43.498;-1.506;2022-12-18T04:37:29;12.00;94.40
34644;DHT22;26931;43.498;-1.506;2022-12-18T04:39:55;11.90;94.40
34644;DHT22;26931;43.498;-1.506;2022-12-18T04:42:21;12.00;94.40
34644;DHT22;26931;43.498;-1.506;2022-12-18T04:44:46;12.10;94.40
34644;DHT22;26931;43.498;-1.506;2022-12-18T04:47:14;11.80;94.40
34644;DHT22;26931;43.498;-1.506;2022-12-18T04:49:40;11.90;94.40
34644;DHT22;26931;43.498;-1.506;2022-12-18T04:52:06;11.90;94.50
34644;DHT22;26931;43.498;-1.506;2022-12-18T04:54:32;11.90;94.50
34644;DHT22;26931;43.498;-1.506;2022-12-18T04:56:58;11.80;94.50
34644;DHT22;26931;43.498;-1.506;2022-12-18T04:59:24;11.80;94.60
34644;DHT22;26931;43.498;-1.506;2022-12-18T05:01:49;11.80;94.70
34644;DHT22;26931;43.498;-1.506;2022-12-18T05:04:15;11.70;94.70
34644;DHT22;26931;43.498;-1.506;2022-12-18T05:06:41;11.70;94.80
34644;DHT22;26931;43.498;-1.506;2022-12-18T05:09:07;11.70;94.80
34644;DHT22;26931;43.498;-1.506;2022-12-18T05:11:33;11.70;94.80
34644;DHT22;26931;43.498;-1.506;2022-12-18T05:13:59;11.70;94.90
34644;DHT22;26931;43.498;-1.506;2022-12-18T05:16:25;11.70;94.90
34644;DHT22;26931;43.498;-1.506;2022-12-18T05:18:53;11.70;94.80
34644;DHT22;26931;43.498;-1.506;2022-12-18T05:21:19;11.70;94.80
34644;DHT22;26931;43.498;-1.506;2022-12-18T05:23:48;11.70;94.70
34644;DHT22;26931;43.498;-1.506;2022-12-18T05:26:15;11.60;94.80
34644;DHT22;26931;43.498;-1.506;2022-12-18T05:28:42;11.60;94.90
34644;DHT22;26931;43.498;-1.506;2022-12-18T05:31:08;11.50;94.90
34644;DHT22;26931;43.498;-1.506;2022-12-18T05:33:34;11.60;94.90
34644;DHT22;26931;43.498;-1.506;2022-12-18T05:36:00;11.60;94.90
34644;DHT22;26931;43.498;-1.506;2022-12-18T05:38:27;11.50;94.90
34644;DHT22;26931;43.498;-1.506;2022-12-18T05:40:53;11.50;95.00
34644;DHT22;26931;43.498;-1.506;2022-12-18T05:43:19;11.50;95.00
34644;DHT22;26931;43.498;-1.506;2022-12-18T05:45:47;11.50;95.10
34644;DHT22;26931;43.498;-1.506;2022-12-18T05:48:13;11.40;95.10
34644;DHT22;26931;43.498;-1.506;2022-12-18T05:50:39;11.40;95.10
34644;DHT22;26931;43.498;-1.506;2022-12-18T05:53:05;11.30;95.10
34644;DHT22;26931;43.498;-1.506;2022-12-18T05:55:34;11.50;95.10
34644;DHT22;26931;43.498;-1.506;2022-12-18T05:58:01;11.40;95.00
34644;DHT22;26931;43.498;-1.506;2022-12-18T06:00:26;11.60;95.00
34644;DHT22;26931;43.498;-1.506;2022-12-18T06:02:55;11.80;94.80
34644;DHT22;26931;43.498;-1.506;2022-12-18T06:05:21;11.60;94.70
34644;DHT22;26931;43.498;-1.506;2022-12-18T06:07:46;11.50;94.60
34644;DHT22;26931;43.498;-1.506;2022-12-18T06:10:12;11.70;94.50
34644;DHT22;26931;43.498;-1.506;2022-12-18T06:12:37;11.60;94.50
34644;DHT22;26931;43.498;-1.506;2022-12-18T06:15:03;11.60;94.50
34644;DHT22;26931;43.498;-1.506;2022-12-18T06:17:32;11.60;94.40
34644;DHT22;26931;43.498;-1.506;2022-12-18T06:19:59;11.40;94.40
34644;DHT22;26931;43.498;-1.506;2022-12-18T06:22:27;11.60;94.50
34644;DHT22;26931;43.498;-1.506;2022-12-18T06:24:53;11.50;94.50
34644;DHT22;26931;43.498;-1.506;2022-12-18T06:27:21;11.40;94.50
34644;DHT22;26931;43.498;-1.506;2022-12-18T06:29:49;11.30;94.60
34644;DHT22;26931;43.498;-1.506;2022-12-18T06:32:15;11.30;94.60
34644;DHT22;26931;43.498;-1.506;2022-12-18T06:34:40;11.20;94.60
34644;DHT22;26931;43.498;-1.506;2022-12-18T06:37:06;11.10;94.60
34644;DHT22;26931;43.498;-1.506;2022-12-18T06:39:31;11.10;94.70
34644;DHT22;26931;43.498;-1.506;2022-12-18T06:42:00;11.10;94.70
34644;DHT22;26931;43.498;-1.506;2022-12-18T06:44:28;11.00;94.80
34644;DHT22;26931;43.498;-1.506;2022-12-18T06:46:54;10.90;94.70
34644;DHT22;26931;43.498;-1.506;2022-12-18T06:49:20;10.80;94.90
34644;DHT22;26931;43.498;-1.506;2022-12-18T06:51:51;10.80;94.90
34644;DHT22;26931;43.498;-1.506;2022-12-18T06:54:23;10.70;95.00
34644;DHT22;26931;43.498;-1.506;2022-12-18T06:56:51;10.70;95.10
34644;DHT22;26931;43.498;-1.506;2022-12-18T06:59:22;10.90;95.20
34644;DHT22;26931;43.498;-1.506;2022-12-18T07:01:51;10.60;95.30
34644;DHT22;26931;43.498;-1.506;2022-12-18T07:04:17;10.50;95.30
34644;DHT22;26931;43.498;-1.506;2022-12-18T07:06:42;10.60;95.50
34644;DHT22;26931;43.498;-1.506;2022-12-18T07:09:11;10.50;95.50
34644;DHT22;26931;43.498;-1.506;2022-12-18T07:11:42;10.40;95.60
34644;DHT22;26931;43.498;-1.506;2022-12-18T07:14:11;10.40;95.60
34644;DHT22;26931;43.498;-1.506;2022-12-18T07:16:37;10.30;95.70
34644;DHT22;26931;43.498;-1.506;2022-12-18T07:19:03;10.50;95.80
34644;DHT22;26931;43.498;-1.506;2022-12-18T07:21:29;10.20;95.90
34644;DHT22;26931;43.498;-1.506;2022-12-18T07:23:55;10.20;96.00
34644;DHT22;26931;43.498;-1.506;2022-12-18T07:26:21;10.20;96.00
34644;DHT22;26931;43.498;-1.506;2022-12-18T07:28:47;10.10;96.00
34644;DHT22;26931;43.498;-1.506;2022-12-18T07:31:15;10.10;96.10
34644;DHT22;26931;43.498;-1.506;2022-12-18T07:33:41;10.00;96.20
34644;DHT22;26931;43.498;-1.506;2022-12-18T07:36:07;10.00;96.30
34644;DHT22;26931;43.498;-1.506;2022-12-18T07:38:33;10.10;96.40
34644;DHT22;26931;43.498;-1.506;2022-12-18T07:41:00;10.00;96.40
34644;DHT22;26931;43.498;-1.506;2022-12-18T07:43:26;10.00;96.40
34644;DHT22;26931;43.498;-1.506;2022-12-18T07:45:51;9.90;96.40
34644;DHT22;26931;43.498;-1.506;2022-12-18T07:48:17;9.80;96.40
34644;DHT22;26931;43.498;-1.506;2022-12-18T07:50:43;9.80;96.40
34644;DHT22;26931;43.498;-1.506;2022-12-18T07:53:09;9.90;96.40
34644;DHT22;26931;43.498;-1.506;2022-12-18T07:55:34;9.80;96.40
34644;DHT22;26931;43.498;-1.506;2022-12-18T07:58:01;9.80;96.40
34644;DHT22;26931;43.498;-1.506;2022-12-18T08:00:27;9.70;96.40
34644;DHT22;26931;43.498;-1.506;2022-12-18T08:02:53;9.80;96.50
34644;DHT22;26931;43.498;-1.506;2022-12-18T08:05:19;9.80;96.50
34644;DHT22;26931;43.498;-1.506;2022-12-18T08:07:46;9.90;96.50
34644;DHT22;26931;43.498;-1.506;2022-12-18T08:10:12;9.70;96.60
34644;DHT22;26931;43.498;-1.506;2022-12-18T08:12:38;9.70;96.60
34644;DHT22;26931;43.498;-1.506;2022-12-18T08:15:03;9.60;96.60
34644;DHT22;26931;43.498;-1.506;2022-12-18T08:17:29;9.60;96.60
34644;DHT22;26931;43.498;-1.506;2022-12-18T08:19:55;9.60;96.60
34644;DHT22;26931;43.498;-1.506;2022-12-18T08:22:21;9.50;96.60
34644;DHT22;26931;43.498;-1.506;2022-12-18T08:24:50;9.60;96.60
34644;DHT22;26931;43.498;-1.506;2022-12-18T08:27:18;9.50;96.70
34644;DHT22;26931;43.498;-1.506;2022-12-18T08:29:44;9.50;96.60
34644;DHT22;26931;43.498;-1.506;2022-12-18T08:32:10;9.50;96.50
34644;DHT22;26931;43.498;-1.506;2022-12-18T08:34:35;9.50;96.50
34644;DHT22;26931;43.498;-1.506;2022-12-18T08:37:04;9.40;96.50
34644;DHT22;26931;43.498;-1.506;2022-12-18T08:39:30;9.50;96.60
34644;DHT22;26931;43.498;-1.506;2022-12-18T08:41:56;9.60;96.70
34644;DHT22;26931;43.498;-1.506;2022-12-18T08:44:40;9.60;96.60
34644;DHT22;26931;43.498;-1.506;2022-12-18T08:47:06;9.60;96.60
34644;DHT22;26931;43.498;-1.506;2022-12-18T08:49:33;9.50;96.50
34644;DHT22;26931;43.498;-1.506;2022-12-18T08:51:59;9.60;96.70
34644;DHT22;26931;43.498;-1.506;2022-12-18T08:54:25;9.80;96.70
34644;DHT22;26931;43.498;-1.506;2022-12-18T08:56:51;9.70;96.70
34644;DHT22;26931;43.498;-1.506;2022-12-18T08:59:16;9.80;96.60
34644;DHT22;26931;43.498;-1.506;2022-12-18T09:01:42;9.80;96.70
34644;DHT22;26931;43.498;-1.506;2022-12-18T09:04:11;9.60;96.60
34644;DHT22;26931;43.498;-1.506;2022-12-18T09:06:37;9.80;96.70
34644;DHT22;26931;43.498;-1.506;2022-12-18T09:09:03;9.60;96.70
34644;DHT22;26931;43.498;-1.506;2022-12-18T09:11:29;9.80;96.80
34644;DHT22;26931;43.498;-1.506;2022-12-18T09:13:55;9.80;96.70
34644;DHT22;26931;43.498;-1.506;2022-12-18T09:16:21;9.70;96.70
34644;DHT22;26931;43.498;-1.506;2022-12-18T09:18:47;9.90;96.70
34644;DHT22;26931;43.498;-1.506;2022-12-18T09:21:16;9.90;96.70
34644;DHT22;26931;43.498;-1.506;2022-12-18T09:23:42;9.90;96.60
34644;DHT22;26931;43.498;-1.506;2022-12-18T09:26:08;10.10;96.70
34644;DHT22;26931;43.498;-1.506;2022-12-18T09:28:34;10.10;96.60
34644;DHT22;26931;43.498;-1.506;2022-12-18T09:31:05;10.10;96.60
34644;DHT22;26931;43.498;-1.506;2022-12-18T09:33:32;10.20;96.60
34644;DHT22;26931;43.498;-1.506;2022-12-18T09:36:05;10.40;96.70
34644;DHT22;26931;43.498;-1.506;2022-12-18T09:38:31;10.20;96.70
34644;DHT22;26931;43.498;-1.506;2022-12-18T09:41:05;10.40;96.80
34644;DHT22;26931;43.498;-1.506;2022-12-18T09:43:41;10.30;96.70
34644;DHT22;26931;43.498;-1.506;2022-12-18T09:46:11;10.30;96.70
34644;DHT22;26931;43.498;-1.506;2022-12-18T09:48:43;10.40;96.80
34644;DHT22;26931;43.498;-1.506;2022-12-18T09:51:14;10.50;96.80
34644;DHT22;26931;43.498;-1.506;2022-12-18T09:54:01;10.70;96.80
34644;DHT22;26931;43.498;-1.506;2022-12-18T09:56:35;10.60;96.80
34644;DHT22;26931;43.498;-1.506;2022-12-18T09:59:08;10.70;96.80
34644;DHT22;26931;43.498;-1.506;2022-12-18T10:01:42;10.80;96.80
34644;DHT22;26931;43.498;-1.506;2022-12-18T10:04:11;10.90;96.80
34644;DHT22;26931;43.498;-1.506;2022-12-18T10:06:44;11.00;96.80
34644;DHT22;26931;43.498;-1.506;2022-12-18T10:14:20;11.30;96.70
34644;DHT22;26931;43.498;-1.506;2022-12-18T10:16:56;11.40;96.70
34644;DHT22;26931;43.498;-1.506;2022-12-18T10:22:11;11.80;96.60
34644;DHT22;26931;43.498;-1.506;2022-12-18T10:24:40;11.90;96.60
34644;DHT22;26931;43.498;-1.506;2022-12-18T10:27:14;12.00;96.50
34644;DHT22;26931;43.498;-1.506;2022-12-18T10:29:41;12.20;96.40
34644;DHT22;26931;43.498;-1.506;2022-12-18T10:32:07;12.20;96.40
34644;DHT22;26931;43.498;-1.506;2022-12-18T10:34:34;12.50;96.30
34644;DHT22;26931;43.498;-1.506;2022-12-18T10:37:00;12.60;96.10
34644;DHT22;26931;43.498;-1.506;2022-12-18T10:39:29;12.70;95.90
34644;DHT22;26931;43.498;-1.506;2022-12-18T10:42:15;13.00;95.60
34644;DHT22;26931;43.498;-1.506;2022-12-18T10:44:41;13.30;95.50
34644;DHT22;26931;43.498;-1.506;2022-12-18T10:47:10;13.20;95.10
34644;DHT22;26931;43.498;-1.506;2022-12-18T10:49:37;13.40;94.90
34644;DHT22;26931;43.498;-1.506;2022-12-18T10:52:17;13.60;94.70
34644;DHT22;26931;43.498;-1.506;2022-12-18T10:54:53;13.70;94.40
34644;DHT22;26931;43.498;-1.506;2022-12-18T10:59:52;13.90;93.90
34644;DHT22;26931;43.498;-1.506;2022-12-18T11:02:26;14.00;93.70
34644;DHT22;26931;43.498;-1.506;2022-12-18T11:04:52;14.20;93.40
34644;DHT22;26931;43.498;-1.506;2022-12-18T11:07:18;14.20;93.10
34644;DHT22;26931;43.498;-1.506;2022-12-18T11:09:45;14.40;92.90
34644;DHT22;26931;43.498;-1.506;2022-12-18T11:12:24;14.50;92.60
34644;DHT22;26931;43.498;-1.506;2022-12-18T11:14:54;14.70;92.30
34644;DHT22;26931;43.498;-1.506;2022-12-18T11:17:30;14.70;92.10
34644;DHT22;26931;43.498;-1.506;2022-12-18T11:19:57;14.70;91.80
34644;DHT22;26931;43.498;-1.506;2022-12-18T11:22:33;14.80;91.60
34644;DHT22;26931;43.498;-1.506;2022-12-18T11:25:16;15.00;91.50
34644;DHT22;26931;43.498;-1.506;2022-12-18T11:27:51;15.00;91.30
34644;DHT22;26931;43.498;-1.506;2022-12-18T11:32:53;15.10;90.90
34644;DHT22;26931;43.498;-1.506;2022-12-18T11:35:21;15.20;90.70
34644;DHT22;26931;43.498;-1.506;2022-12-18T11:37:50;15.30;90.50
34644;DHT22;26931;43.498;-1.506;2022-12-18T11:40:19;15.30;90.40
34644;DHT22;26931;43.498;-1.506;2022-12-18T11:42:54;15.30;90.20
34644;DHT22;26931;43.498;-1.506;2022-12-18T11:45:28;15.30;90.00
34644;DHT22;26931;43.498;-1.506;2022-12-18T11:48:05;15.50;89.90
34644;DHT22;26931;43.498;-1.506;2022-12-18T11:53:10;15.60;89.20
34644;DHT22;26931;43.498;-1.506;2022-12-18T11:55:51;15.60;88.90
34644;DHT22;26931;43.498;-1.506;2022-12-18T12:00:56;15.70;88.60
34644;DHT22;26931;43.498;-1.506;2022-12-18T12:03:33;15.80;88.40
34644;DHT22;26931;43.498;-1.506;2022-12-18T12:06:03;15.80;87.90
34644;DHT22;26931;43.498;-1.506;2022-12-18T12:16:04;15.90;86.60
34644;DHT22;26931;43.498;-1.506;2022-12-18T12:18:41;15.90;86.50
34644;DHT22;26931;43.498;-1.506;2022-12-18T12:23:58;16.10;85.90
34644;DHT22;26931;43.498;-1.506;2022-12-18T12:39:33;16.20;84.60
34644;DHT22;26931;43.498;-1.506;2022-12-18T12:42:01;16.30;84.60
34644;DHT22;26931;43.498;-1.506;2022-12-18T12:44:47;16.30;84.50
34644;DHT22;26931;43.498;-1.506;2022-12-18T12:47:16;16.40;84.30
34644;DHT22;26931;43.498;-1.506;2022-12-18T12:49:42;16.40;84.20
34644;DHT22;26931;43.498;-1.506;2022-12-18T12:52:33;16.40;83.80
34644;DHT22;26931;43.498;-1.506;2022-12-18T12:55:00;16.30;83.40
34644;DHT22;26931;43.498;-1.506;2022-12-18T12:57:35;16.40;83.40
34644;DHT22;26931;43.498;-1.506;2022-12-18T13:00:05;16.40;83.20
34644;DHT22;26931;43.498;-1.506;2022-12-18T13:07:47;16.50;82.60
34644;DHT22;26931;43.498;-1.506;2022-12-18T13:15:39;16.80;82.00
34644;DHT22;26931;43.498;-1.506;2022-12-18T13:18:05;16.60;81.50
34644;DHT22;26931;43.498;-1.506;2022-12-18T13:20:39;16.60;81.20
34644;DHT22;26931;43.498;-1.506;2022-12-18T13:25:50;16.70;81.10
34644;DHT22;26931;43.498;-1.506;2022-12-18T13:28:17;16.70;81.00
34644;DHT22;26931;43.498;-1.506;2022-12-18T13:43:24;16.90;80.00
34644;DHT22;26931;43.498;-1.506;2022-12-18T13:48:24;16.90;79.80
34644;DHT22;26931;43.498;-1.506;2022-12-18T13:50:52;16.90;79.70
34644;DHT22;26931;43.498;-1.506;2022-12-18T13:53:23;16.90;79.60
34644;DHT22;26931;43.498;-1.506;2022-12-18T13:55:50;16.90;79.50
34644;DHT22;26931;43.498;-1.506;2022-12-18T13:58:16;16.90;79.40
34644;DHT22;26931;43.498;-1.506;2022-12-18T14:00:42;17.10;79.40
34644;DHT22;26931;43.498;-1.506;2022-12-18T14:03:16;16.90;79.20
34644;DHT22;26931;43.498;-1.506;2022-12-18T14:05:43;16.90;79.00
34644;DHT22;26931;43.498;-1.506;2022-12-18T14:08:14;17.00;78.80
34644;DHT22;26931;43.498;-1.506;2022-12-18T14:10:44;16.90;78.40
34644;DHT22;26931;43.498;-1.506;2022-12-18T14:13:11;17.00;78.60
34644;DHT22;26931;43.498;-1.506;2022-12-18T14:20:35;16.90;78.30
34644;DHT22;26931;43.498;-1.506;2022-12-18T14:23:01;16.90;78.00
34644;DHT22;26931;43.498;-1.506;2022-12-18T14:25:28;16.90;78.00
34644;DHT22;26931;43.498;-1.506;2022-12-18T14:30:34;16.90;77.70
34644;DHT22;26931;43.498;-1.506;2022-12-18T14:33:04;16.90;77.60
34644;DHT22;26931;43.498;-1.506;2022-12-18T14:35:31;16.80;77.60
34644;DHT22;26931;43.498;-1.506;2022-12-18T14:40:41;16.90;77.50
34644;DHT22;26931;43.498;-1.506;2022-12-18T14:43:09;16.90;77.30
34644;DHT22;26931;43.498;-1.506;2022-12-18T14:45:36;16.90;78.00
34644;DHT22;26931;43.498;-1.506;2022-12-18T14:48:06;16.90;77.40
34644;DHT22;26931;43.498;-1.506;2022-12-18T14:50:33;16.80;77.40
34644;DHT22;26931;43.498;-1.506;2022-12-18T14:52:59;16.80;77.40
34644;DHT22;26931;43.498;-1.506;2022-12-18T14:55:24;16.90;77.40
34644;DHT22;26931;43.498;-1.506;2022-12-18T14:57:50;16.90;77.20
34644;DHT22;26931;43.498;-1.506;2022-12-18T15:00:21;16.90;77.10
34644;DHT22;26931;43.498;-1.506;2022-12-18T15:02:50;16.80;76.90
34644;DHT22;26931;43.498;-1.506;2022-12-18T15:05:30;16.90;76.80
34644;DHT22;26931;43.498;-1.506;2022-12-18T15:07:57;17.10;76.80
34644;DHT22;26931;43.498;-1.506;2022-12-18T15:10:28;16.90;76.60
34644;DHT22;26931;43.498;-1.506;2022-12-18T15:18:04;16.90;76.50
34644;DHT22;26931;43.498;-1.506;2022-12-18T15:20:32;16.90;76.40
34644;DHT22;26931;43.498;-1.506;2022-12-18T15:22:59;16.90;76.40
34644;DHT22;26931;43.498;-1.506;2022-12-18T15:25:27;16.90;76.40
34644;DHT22;26931;43.498;-1.506;2022-12-18T15:27:57;17.00;76.50
34644;DHT22;26931;43.498;-1.506;2022-12-18T15:30:23;16.90;76.40
34644;DHT22;26931;43.498;-1.506;2022-12-18T15:32:50;16.80;76.30
34644;DHT22;26931;43.498;-1.506;2022-12-18T15:37:41;16.80;76.30
34644;DHT22;26931;43.498;-1.506;2022-12-18T15:40:08;16.80;76.30
34644;DHT22;26931;43.498;-1.506;2022-12-18T15:42:37;16.80;76.40
34644;DHT22;26931;43.498;-1.506;2022-12-18T15:45:21;16.70;76.50
34644;DHT22;26931;43.498;-1.506;2022-12-18T15:47:47;16.80;76.50
34644;DHT22;26931;43.498;-1.506;2022-12-18T15:50:13;16.70;76.40
34644;DHT22;26931;43.498;-1.506;2022-12-18T15:52:42;16.60;76.40
34644;DHT22;26931;43.498;-1.506;2022-12-18T15:55:19;16.70;76.50
34644;DHT22;26931;43.498;-1.506;2022-12-18T15:58:04;16.70;76.20
34644;DHT22;26931;43.498;-1.506;2022-12-18T16:00:31;16.60;76.10
34644;DHT22;26931;43.498;-1.506;2022-12-18T16:02:57;16.60;76.10
34644;DHT22;26931;43.498;-1.506;2022-12-18T16:05:23;16.60;75.80
34644;DHT22;26931;43.498;-1.506;2022-12-18T16:07:49;16.70;75.90
34644;DHT22;26931;43.498;-1.506;2022-12-18T16:10:14;16.50;75.80
34644;DHT22;26931;43.498;-1.506;2022-12-18T16:12:41;16.50;75.80
34644;DHT22;26931;43.498;-1.506;2022-12-18T16:15:07;16.50;75.90
34644;DHT22;26931;43.498;-1.506;2022-12-18T16:17:33;16.50;76.00
34644;DHT22;26931;43.498;-1.506;2022-12-18T16:19:58;16.50;76.00
34644;DHT22;26931;43.498;-1.506;2022-12-18T16:22:25;16.40;75.90
34644;DHT22;26931;43.498;-1.506;2022-12-18T16:24:52;16.50;76.10
34644;DHT22;26931;43.498;-1.506;2022-12-18T16:27:19;16.30;76.10
34644;DHT22;26931;43.498;-1.506;2022-12-18T16:29:45;16.30;76.20
34644;DHT22;26931;43.498;-1.506;2022-12-18T16:32:15;16.30;76.20
34644;DHT22;26931;43.498;-1.506;2022-12-18T16:34:41;16.30;76.20
34644;DHT22;26931;43.498;-1.506;2022-12-18T16:37:08;16.30;76.20
34644;DHT22;26931;43.498;-1.506;2022-12-18T16:39:34;16.30;76.20
34644;DHT22;26931;43.498;-1.506;2022-12-18T16:42:00;16.30;76.50
34644;DHT22;26931;43.498;-1.506;2022-12-18T16:44:26;16.20;76.10
34644;DHT22;26931;43.498;-1.506;2022-12-18T16:46:52;16.20;76.00
34644;DHT22;26931;43.498;-1.506;2022-12-18T16:49:18;16.20;76.10
34644;DHT22;26931;43.498;-1.506;2022-12-18T16:51:45;16.20;76.10
34644;DHT22;26931;43.498;-1.506;2022-12-18T16:54:11;16.10;76.10
34644;DHT22;26931;43.498;-1.506;2022-12-18T16:56:38;16.20;76.20
34644;DHT22;26931;43.498;-1.506;2022-12-18T16:59:03;16.00;76.20
34644;DHT22;26931;43.498;-1.506;2022-12-18T17:01:30;16.00;76.40
34644;DHT22;26931;43.498;-1.506;2022-12-18T17:06:22;16.00;76.50
34644;DHT22;26931;43.498;-1.506;2022-12-18T17:08:53;15.90;76.50
34644;DHT22;26931;43.498;-1.506;2022-12-18T17:11:19;16.10;76.70
34644;DHT22;26931;43.498;-1.506;2022-12-18T17:13:45;15.90;76.50
34644;DHT22;26931;43.498;-1.506;2022-12-18T17:16:11;15.90;76.40